createdAt,value
2022-10-30T00:00:28.610Z,19.83
2022-10-30T00:03:46.315Z,20.63
2022-10-30T00:07:03.488Z,19.83
2022-10-30T00:10:21.424Z,20.33
2022-10-30T00:16:53.836Z,21.45
2022-10-30T00:20:10.877Z,21.65
2022-10-30T00:23:27.761Z,21.05
2022-10-30T00:26:44.530Z,20.33
2022-10-30T00:30:00.720Z,19.95
2022-10-30T00:33:17.544Z,20.18
2022-10-30T00:36:33.844Z,20.55
2022-10-30T00:39:50.388Z,18.78
2022-10-30T00:43:06.944Z,20.55
2022-10-30T00:46:30.736Z,20.38
2022-10-30T00:49:53.238Z,21.03
2022-10-30T00:53:13.433Z,20.43
2022-10-30T00:56:32.118Z,19.73
2022-10-30T00:59:50.123Z,19.65
2022-10-30T01:03:06.685Z,21.13
2022-10-30T01:06:25.181Z,20.73
2022-10-30T01:09:42.100Z,22.53
2022-10-30T01:13:00.678Z,22.90
2022-10-30T01:16:50.568Z,21.35
2022-10-30T01:20:20.225Z,22.03
2022-10-30T01:23:45.270Z,21.58
2022-10-30T01:30:29.562Z,20.55
2022-10-30T01:33:56.756Z,19.30
2022-10-30T01:37:18.440Z,19.88
2022-10-30T01:40:35.256Z,21.30
2022-10-30T01:47:26.103Z,18.95
2022-10-30T01:50:49.810Z,18.75
2022-10-30T01:54:13.151Z,18.88
2022-10-30T01:57:39.543Z,18.55
2022-10-30T02:01:02.396Z,19.80
2022-10-30T02:04:20.281Z,18.90
2022-10-30T02:07:38.725Z,20.25
2022-10-30T02:16:13.544Z,18.98
2022-10-30T02:19:32.004Z,19.98
2022-10-30T02:22:53.052Z,20.95
2022-10-30T02:26:08.474Z,21.10
2022-10-30T02:29:25.518Z,21.05
2022-10-30T02:32:42.191Z,19.85
2022-10-30T02:35:59.053Z,19.10
2022-10-30T02:39:15.819Z,20.48
2022-10-30T02:45:47.837Z,21.05
2022-10-30T02:49:04.114Z,19.88
2022-10-30T02:52:21.275Z,19.70
2022-10-30T02:55:37.795Z,19.85
2022-10-30T03:02:09.932Z,20.23
2022-10-30T03:05:26.908Z,20.58
2022-10-30T03:08:44.475Z,20.63
2022-10-30T03:12:01.167Z,21.18
2022-10-30T03:15:19.469Z,22.63
2022-10-30T03:18:35.829Z,22.07
2022-10-30T03:21:53.722Z,23.10
2022-10-30T03:25:11.032Z,23.83
2022-10-30T03:28:27.503Z,24.60
2022-10-30T03:31:43.883Z,23.20
2022-10-30T03:35:04.955Z,22.78
2022-10-30T03:38:21.861Z,22.35
2022-10-30T03:41:38.218Z,22.30
2022-10-30T03:44:57.108Z,22.28
2022-10-30T03:48:14.857Z,21.70
2022-10-30T03:54:46.596Z,20.60
2022-10-30T03:58:02.955Z,21.53
2022-10-30T04:01:20.000Z,20.50
2022-10-30T04:04:37.945Z,20.60
2022-10-30T04:07:54.992Z,20.60
2022-10-30T04:11:11.392Z,20.70
2022-10-30T04:17:44.483Z,20.38
2022-10-30T04:21:01.403Z,22.00
2022-10-30T04:24:19.573Z,20.60
2022-10-30T04:27:37.397Z,20.98
2022-10-30T04:30:54.056Z,21.35
2022-10-30T04:34:10.228Z,20.83
2022-10-30T04:37:26.619Z,20.88
2022-10-30T04:40:46.535Z,21.30
2022-10-30T04:44:02.787Z,21.00
2022-10-30T04:47:21.078Z,21.38
2022-10-30T04:50:39.638Z,21.73
2022-10-30T04:53:55.960Z,21.67
2022-10-30T04:57:12.230Z,22.63
2022-10-30T05:00:30.521Z,22.50
2022-10-30T05:03:50.668Z,22.25
2022-10-30T05:07:06.531Z,21.15
2022-10-30T05:10:23.898Z,22.00
2022-10-30T05:13:41.232Z,21.63
2022-10-30T05:16:57.427Z,21.23
2022-10-30T05:20:18.863Z,22.30
2022-10-30T05:23:33.984Z,20.55
2022-10-30T05:27:54.514Z,21.60
2022-10-30T05:31:11.043Z,21.38
2022-10-30T05:34:29.156Z,19.70
2022-10-30T05:37:45.299Z,21.43
2022-10-30T05:41:01.697Z,19.45
2022-10-30T05:44:28.872Z,21.08
2022-10-30T05:47:36.130Z,20.55
2022-10-30T05:50:53.965Z,20.63
2022-10-30T05:54:12.743Z,21.00
2022-10-30T06:00:49.616Z,20.63
2022-10-30T06:04:07.473Z,21.90
2022-10-30T06:07:25.693Z,20.55
2022-10-30T06:10:42.163Z,19.80
2022-10-30T06:17:22.668Z,19.85
2022-10-30T06:20:41.192Z,18.70
2022-10-30T06:24:15.615Z,18.95
2022-10-30T06:31:07.338Z,17.03
2022-10-30T06:34:25.857Z,19.00
2022-10-30T06:37:42.836Z,17.40
2022-10-30T06:41:02.455Z,17.33
2022-10-30T06:44:20.382Z,15.35
2022-10-30T06:47:36.838Z,17.08
2022-10-30T06:51:00.835Z,16.63
2022-10-30T06:54:18.401Z,15.85
2022-10-30T07:01:09.023Z,15.50
2022-10-30T07:04:46.584Z,15.48
2022-10-30T07:08:06.549Z,14.48
2022-10-30T07:11:22.909Z,14.25
2022-10-30T07:18:16.705Z,14.33
2022-10-30T07:21:33.829Z,14.20
2022-10-30T07:24:51.794Z,13.63
2022-10-30T07:28:09.694Z,13.90
2022-10-30T07:31:41.876Z,13.50
2022-10-30T07:34:59.028Z,13.40
2022-10-30T07:38:22.971Z,14.00
2022-10-30T07:41:41.388Z,14.15
2022-10-30T07:45:21.540Z,13.78
2022-10-30T07:48:48.676Z,13.95
2022-10-30T07:52:16.309Z,14.08
2022-10-30T07:55:33.683Z,14.38
2022-10-30T08:02:10.036Z,13.75
2022-10-30T08:05:34.034Z,14.03
2022-10-30T08:08:50.693Z,14.25
2022-10-30T08:12:26.208Z,16.23
2022-10-30T08:15:42.622Z,14.73
2022-10-30T08:18:59.334Z,14.20
2022-10-30T08:22:17.269Z,12.75
2022-10-30T08:25:37.256Z,12.00
2022-10-30T08:28:53.490Z,12.33
2022-10-30T08:32:09.880Z,12.93
2022-10-30T08:35:28.719Z,11.95
2022-10-30T08:38:46.739Z,11.68
2022-10-30T08:42:15.018Z,12.38
2022-10-30T08:45:33.411Z,12.43
2022-10-30T08:48:51.497Z,12.78
2022-10-30T08:52:07.686Z,12.65
2022-10-30T08:55:24.471Z,12.48
2022-10-30T08:58:42.613Z,10.70
2022-10-30T09:01:59.510Z,77.18
2022-10-30T09:05:25.435Z,22.60
2022-10-30T09:08:59.413Z,13.60
2022-10-30T09:12:26.370Z,10.38
2022-10-30T09:15:43.658Z,9.93
2022-10-30T09:19:02.561Z,10.08
2022-10-30T09:22:20.181Z,10.78
2022-10-30T09:25:37.518Z,9.75
2022-10-30T09:29:11.834Z,9.43
2022-10-30T09:32:28.586Z,9.60
2022-10-30T09:36:00.453Z,9.58
2022-10-30T09:39:16.046Z,9.50
2022-10-30T09:42:54.646Z,9.00
2022-10-30T09:46:39.239Z,9.48
2022-10-30T09:50:26.724Z,8.85
2022-10-30T09:53:50.983Z,8.28
2022-10-30T09:57:13.135Z,8.38
2022-10-30T10:00:33.304Z,7.93
2022-10-30T10:04:04.384Z,8.15
2022-10-30T10:07:34.876Z,9.15
2022-10-30T10:11:04.823Z,7.90
2022-10-30T10:14:26.451Z,25.93
2022-10-30T10:17:46.899Z,15.55
2022-10-30T10:21:18.247Z,8.85
2022-10-30T10:24:38.270Z,8.03
2022-10-30T10:28:05.597Z,7.50
2022-10-30T10:31:36.512Z,7.10
2022-10-30T10:35:30.631Z,6.90
2022-10-30T10:39:05.823Z,7.38
2022-10-30T10:42:30.449Z,7.20
2022-10-30T10:45:55.424Z,7.30
2022-10-30T10:49:29.677Z,7.25
2022-10-30T10:52:55.091Z,6.68
2022-10-30T10:56:13.561Z,6.83
2022-10-30T10:59:38.365Z,5.80
2022-10-30T11:03:00.490Z,5.90
2022-10-30T11:06:32.035Z,6.00
2022-10-30T11:09:49.619Z,5.10
2022-10-30T11:13:10.023Z,5.58
2022-10-30T11:16:33.492Z,5.53
2022-10-30T11:19:51.806Z,6.18
2022-10-30T11:23:07.600Z,5.98
2022-10-30T11:26:43.633Z,6.03
2022-10-30T11:30:08.922Z,67.43
2022-10-30T11:33:38.124Z,28.85
2022-10-30T11:36:55.805Z,8.10
2022-10-30T11:40:29.134Z,6.03
2022-10-30T11:43:51.045Z,6.40
2022-10-30T11:47:09.922Z,6.43
2022-10-30T11:50:30.471Z,6.40
2022-10-30T11:53:51.324Z,6.10
2022-10-30T11:57:08.604Z,6.10
2022-10-30T12:00:29.688Z,6.25
2022-10-30T12:03:48.398Z,6.53
2022-10-30T12:07:23.905Z,6.55
2022-10-30T12:10:43.742Z,6.18
2022-10-30T12:14:03.025Z,6.18
2022-10-30T12:17:22.231Z,6.83
2022-10-30T12:20:42.820Z,6.85
2022-10-30T12:24:07.775Z,6.20
2022-10-30T12:27:25.254Z,6.25
2022-10-30T12:30:50.649Z,27.48
2022-10-30T12:34:18.618Z,10.88
2022-10-30T12:37:38.821Z,7.15
2022-10-30T12:41:07.256Z,6.78
2022-10-30T12:44:27.406Z,6.85
2022-10-30T12:47:48.981Z,8.10
2022-10-30T12:51:19.768Z,6.43
2022-10-30T12:54:41.930Z,5.73
2022-10-30T12:58:02.781Z,6.10
2022-10-30T13:01:29.223Z,6.58
2022-10-30T13:04:49.602Z,6.88
2022-10-30T13:08:23.461Z,7.63
2022-10-30T13:11:49.933Z,7.03
2022-10-30T13:15:10.008Z,7.30
2022-10-30T13:18:30.833Z,8.10
2022-10-30T13:21:54.959Z,7.43
2022-10-30T13:25:17.022Z,7.00
2022-10-30T13:28:38.613Z,5.58
2022-10-30T13:32:08.029Z,5.73
2022-10-30T13:35:36.597Z,5.70
2022-10-30T13:39:00.054Z,6.35
2022-10-30T13:42:31.008Z,13.13
2022-10-30T13:46:21.229Z,15.25
2022-10-30T13:49:53.891Z,8.43
2022-10-30T13:53:16.317Z,6.95
2022-10-30T13:56:33.687Z,5.98
2022-10-30T14:00:10.438Z,5.88
2022-10-30T14:03:51.737Z,5.50
2022-10-30T14:07:22.410Z,5.95
2022-10-30T14:11:00.376Z,5.75
2022-10-30T14:14:35.456Z,6.08
2022-10-30T14:18:24.668Z,5.90
2022-10-30T14:22:02.104Z,7.45
2022-10-30T14:25:24.375Z,7.33
2022-10-30T14:28:42.326Z,6.85
2022-10-30T14:31:59.249Z,6.08
2022-10-30T14:35:41.634Z,5.83
2022-10-30T14:39:11.234Z,6.00
2022-10-30T14:42:35.543Z,6.70
2022-10-30T14:45:59.246Z,6.65
2022-10-30T14:49:52.588Z,7.25
2022-10-30T14:53:37.252Z,6.80
2022-10-30T14:56:56.743Z,6.60
2022-10-30T15:03:44.669Z,6.58
2022-10-30T15:07:14.233Z,6.58
2022-10-30T15:10:34.543Z,6.10
2022-10-30T15:19:40.954Z,7.85
2022-10-30T15:23:01.333Z,7.70
2022-10-30T15:26:30.682Z,8.25
2022-10-30T15:29:47.272Z,8.13
2022-10-30T15:33:03.992Z,8.65
2022-10-30T15:36:29.308Z,7.60
2022-10-30T15:39:58.440Z,8.45
2022-10-30T15:43:19.565Z,7.15
2022-10-30T15:46:43.355Z,7.78
2022-10-30T15:50:09.730Z,7.90
2022-10-30T15:53:46.693Z,7.05
2022-10-30T15:57:42.891Z,6.85
2022-10-30T16:03:49.965Z,7.78
2022-10-30T16:07:18.926Z,7.43
2022-10-30T16:10:43.320Z,6.98
2022-10-30T16:14:01.213Z,7.68
2022-10-30T16:20:37.639Z,6.95
2022-10-30T16:23:59.539Z,7.03
2022-10-30T16:27:24.189Z,7.38
2022-10-30T16:30:47.123Z,7.45
2022-10-30T16:34:08.730Z,7.98
2022-10-30T16:37:31.263Z,7.48
2022-10-30T16:40:54.370Z,7.83
2022-10-30T16:45:17.634Z,8.73
2022-10-30T16:48:38.201Z,8.03
2022-10-30T16:51:55.638Z,8.55
2022-10-30T16:55:19.533Z,8.33
2022-10-30T16:58:39.136Z,8.40
2022-10-30T17:02:11.752Z,8.03
2022-10-30T17:05:35.965Z,8.63
2022-10-30T17:09:01.899Z,8.05
2022-10-30T17:12:26.879Z,7.68
2022-10-30T17:19:06.799Z,8.28
2022-10-30T17:22:31.794Z,9.53
2022-10-30T17:26:08.340Z,8.30
2022-10-30T17:30:16.342Z,9.50
2022-10-30T17:33:46.052Z,8.10
2022-10-30T17:37:07.016Z,8.40
2022-10-30T17:40:24.903Z,8.50
2022-10-30T17:44:05.753Z,7.80
2022-10-30T17:47:34.887Z,8.20
2022-10-30T17:50:52.640Z,8.65
2022-10-30T17:54:21.029Z,8.73
2022-10-30T17:57:44.944Z,7.45
2022-10-30T18:01:04.742Z,7.70
2022-10-30T18:04:26.960Z,8.38
2022-10-30T18:08:02.916Z,7.45
2022-10-30T18:11:22.087Z,8.38
2022-10-30T18:17:52.237Z,8.00
2022-10-30T18:21:09.331Z,8.43
2022-10-30T18:24:31.472Z,8.35
2022-10-30T18:27:50.242Z,7.88
2022-10-30T18:34:28.589Z,8.50
2022-10-30T18:37:47.633Z,8.50
2022-10-30T18:41:13.859Z,9.25
2022-10-30T18:44:30.687Z,10.90
2022-10-30T18:51:03.113Z,8.40
2022-10-30T18:54:22.871Z,8.98
2022-10-30T18:57:38.995Z,10.05
2022-10-30T19:01:12.400Z,9.53
2022-10-30T19:04:21.726Z,9.20
2022-10-30T19:07:35.582Z,9.75
2022-10-30T19:10:55.677Z,9.53
2022-10-30T19:14:16.714Z,8.95
2022-10-30T19:17:32.996Z,8.70
2022-10-30T19:21:03.943Z,8.60
2022-10-30T19:24:18.538Z,8.68
2022-10-30T19:27:34.786Z,8.75
2022-10-30T19:34:07.182Z,8.70
2022-10-30T19:37:24.661Z,9.50
2022-10-30T19:40:46.243Z,8.40
2022-10-30T19:44:02.741Z,8.50
2022-10-30T19:47:21.147Z,9.90
2022-10-30T19:50:47.156Z,8.90
2022-10-30T19:54:03.193Z,9.23
2022-10-30T19:57:24.689Z,9.13
2022-10-30T20:05:39.870Z,10.10
2022-10-30T20:09:01.629Z,10.73
2022-10-30T20:12:19.790Z,10.33
2022-10-30T20:15:43.939Z,10.60
2022-10-30T20:20:13.317Z,11.08
2022-10-30T20:23:41.039Z,10.55
2022-10-30T20:26:58.076Z,10.58
2022-10-30T20:30:42.451Z,10.13
2022-10-30T20:37:30.283Z,10.23
2022-10-30T20:40:52.501Z,11.43
2022-10-30T20:44:08.926Z,10.58
2022-10-30T20:50:41.283Z,11.53
2022-10-30T20:53:57.619Z,11.28
2022-10-30T20:57:13.943Z,10.98
2022-10-30T21:00:30.521Z,11.38
2022-10-30T21:07:05.809Z,11.20
2022-10-30T21:10:27.813Z,11.48
2022-10-30T21:13:43.625Z,10.93
2022-10-30T21:20:17.687Z,10.85
2022-10-30T21:23:34.106Z,11.28
2022-10-30T21:26:50.447Z,11.03
2022-10-30T21:30:10.475Z,10.20
2022-10-30T21:36:42.660Z,10.53
2022-10-30T21:39:59.162Z,10.45
2022-10-30T21:43:15.600Z,10.60
2022-10-30T21:46:36.433Z,10.68
2022-10-30T21:53:07.349Z,10.20
2022-10-30T21:56:27.075Z,12.15
2022-10-30T21:59:43.409Z,12.20
2022-10-30T22:03:03.646Z,12.93
2022-10-30T22:06:23.363Z,14.08
2022-10-30T22:09:39.616Z,14.78
2022-10-30T22:12:58.973Z,14.40
2022-10-30T22:21:13.534Z,15.00
2022-10-30T22:24:31.330Z,15.75
2022-10-30T22:27:47.896Z,15.35
2022-10-30T22:31:08.641Z,18.88
2022-10-30T22:37:41.173Z,22.45
2022-10-30T22:40:57.341Z,23.48
2022-10-30T22:44:18.233Z,22.68
2022-10-30T22:47:34.493Z,24.15
2022-10-30T22:50:50.616Z,21.58
2022-10-30T22:54:11.282Z,23.23
2022-10-30T22:57:27.413Z,23.63
2022-10-30T23:00:43.591Z,24.45
2022-10-30T23:04:02.542Z,24.58
2022-10-30T23:07:18.653Z,25.43
2022-10-30T23:10:34.960Z,26.55
2022-10-30T23:13:51.433Z,28.85
2022-10-30T23:17:07.658Z,28.65
2022-10-30T23:20:26.566Z,27.23
2022-10-30T23:23:44.795Z,26.60
2022-10-30T23:27:01.872Z,26.88
2022-10-30T23:30:20.736Z,24.60
2022-10-30T23:33:37.657Z,24.65
2022-10-30T23:36:57.663Z,24.98
2022-10-30T23:40:13.435Z,24.53
2022-10-30T23:43:29.945Z,25.58
2022-10-30T23:51:56.700Z,25.53
2022-10-30T23:55:14.836Z,25.53
2022-10-30T23:58:32.037Z,26.10
